createdAt,value
2018-08-27T00:01:22.022Z,82.50
2018-08-27T00:03:51.074Z,82.50
2018-08-27T00:06:19.989Z,82.60
2018-08-27T00:08:49.024Z,82.50
2018-08-27T00:11:18.258Z,82.60
2018-08-27T00:13:47.494Z,82.70
2018-08-27T00:16:16.568Z,82.90
2018-08-27T00:18:45.601Z,83.40
2018-08-27T00:21:14.445Z,83.10
2018-08-27T00:23:43.496Z,82.70
2018-08-27T00:26:12.135Z,83.10
2018-08-27T00:28:40.786Z,83.50
2018-08-27T00:31:09.674Z,83.60
2018-08-27T00:33:38.345Z,83.90
2018-08-27T00:36:07.163Z,83.90
2018-08-27T00:38:35.880Z,84.20
2018-08-27T00:41:05.182Z,84.30
2018-08-27T00:43:33.829Z,84.30
2018-08-27T00:46:02.790Z,84.50
2018-08-27T00:48:31.443Z,84.80
2018-08-27T00:51:00.094Z,84.90
2018-08-27T00:53:29.003Z,85.00
2018-08-27T00:55:57.651Z,85.10
2018-08-27T00:58:26.336Z,85.00
2018-08-27T01:00:55.158Z,84.50
2018-08-27T01:03:24.394Z,84.40
2018-08-27T01:05:53.011Z,84.10
2018-08-27T01:08:21.657Z,83.80
2018-08-27T01:10:50.548Z,84.00
2018-08-27T01:13:19.533Z,84.80
2018-08-27T01:15:48.173Z,85.50
2018-08-27T01:18:17.161Z,85.50
2018-08-27T01:20:46.092Z,85.40
2018-08-27T01:23:14.988Z,85.50
2018-08-27T01:25:43.928Z,85.40
2018-08-27T01:28:13.076Z,85.30
2018-08-27T01:30:42.069Z,85.10
2018-08-27T01:33:10.975Z,86.00
2018-08-27T01:35:39.694Z,85.80
2018-08-27T01:38:08.461Z,85.90
2018-08-27T01:40:37.162Z,85.80
2018-08-27T01:43:06.117Z,85.70
2018-08-27T01:45:35.054Z,85.60
2018-08-27T01:48:03.962Z,86.20
2018-08-27T01:50:32.653Z,85.80
2018-08-27T01:53:01.293Z,85.80
2018-08-27T01:55:29.980Z,85.80
2018-08-27T01:57:58.724Z,85.40
2018-08-27T02:00:27.389Z,85.50
2018-08-27T02:02:56.401Z,85.70
2018-08-27T02:05:25.148Z,86.00
2018-08-27T02:07:54.141Z,85.90
2018-08-27T02:10:23.117Z,85.90
2018-08-27T02:12:51.757Z,85.90
2018-08-27T02:15:20.477Z,85.90
2018-08-27T02:17:49.129Z,85.90
2018-08-27T02:20:17.816Z,85.70
2018-08-27T02:22:46.517Z,85.30
2018-08-27T02:25:15.204Z,85.00
2018-08-27T02:27:43.884Z,85.30
2018-08-27T02:30:12.851Z,85.00
2018-08-27T02:32:41.611Z,85.20
2018-08-27T02:35:10.542Z,85.60
2018-08-27T02:37:39.597Z,85.90
2018-08-27T02:40:08.345Z,85.80
2018-08-27T02:42:37.016Z,85.60
2018-08-27T02:45:06.188Z,85.60
2018-08-27T02:47:34.993Z,85.20
2018-08-27T02:50:04.168Z,85.10
2018-08-27T02:52:32.864Z,85.10
2018-08-27T02:55:01.870Z,84.60
2018-08-27T02:57:30.472Z,85.00
2018-08-27T03:00:00.564Z,84.20
2018-08-27T03:02:29.196Z,84.10
2018-08-27T03:04:57.865Z,84.40
2018-08-27T03:07:26.600Z,84.60
2018-08-27T03:09:56.711Z,85.10
2018-08-27T03:12:25.466Z,85.00
2018-08-27T03:14:54.122Z,84.90
2018-08-27T03:17:22.860Z,85.10
2018-08-27T03:19:51.640Z,85.10
2018-08-27T03:22:20.276Z,85.10
2018-08-27T03:24:48.913Z,85.20
2018-08-27T03:27:17.529Z,85.40
2018-08-27T03:29:46.291Z,85.60
2018-08-27T03:32:15.264Z,85.40
2018-08-27T03:34:44.445Z,85.50
2018-08-27T03:37:13.485Z,85.20
2018-08-27T03:39:42.161Z,84.90
2018-08-27T03:42:11.165Z,84.50
2018-08-27T03:44:39.857Z,84.60
2018-08-27T03:47:08.553Z,84.80
2018-08-27T03:49:37.225Z,84.60
2018-08-27T03:52:05.962Z,84.60
2018-08-27T03:54:34.655Z,84.40
2018-08-27T03:57:03.405Z,85.00
2018-08-27T03:59:32.045Z,83.60
2018-08-27T04:02:00.716Z,83.50
2018-08-27T04:04:29.383Z,84.00
2018-08-27T04:06:58.007Z,84.00
2018-08-27T04:09:26.771Z,84.20
2018-08-27T04:11:55.373Z,84.00
2018-08-27T04:14:24.141Z,83.90
2018-08-27T04:16:53.001Z,84.20
2018-08-27T04:19:21.741Z,83.90
2018-08-27T04:21:50.429Z,83.70
2018-08-27T04:24:19.508Z,84.10
2018-08-27T04:26:48.301Z,84.60
2018-08-27T04:29:16.984Z,85.00
2018-08-27T04:31:45.653Z,84.90
2018-08-27T04:34:14.442Z,85.40
2018-08-27T04:36:43.486Z,85.20
2018-08-27T04:39:12.824Z,85.30
2018-08-27T04:41:41.469Z,84.60
2018-08-27T04:44:10.725Z,85.40
2018-08-27T04:46:39.433Z,85.50
2018-08-27T04:49:08.212Z,85.30
2018-08-27T04:51:37.161Z,85.10
2018-08-27T04:54:06.485Z,84.80
2018-08-27T04:56:35.233Z,84.10
2018-08-27T04:59:14.738Z,83.90
2018-08-27T05:01:43.582Z,83.90
2018-08-27T05:04:12.636Z,84.00
2018-08-27T05:06:41.288Z,84.80
2018-08-27T05:09:10.863Z,84.40
2018-08-27T05:11:40.440Z,84.20
2018-08-27T05:14:10.701Z,84.50
2018-08-27T05:16:39.416Z,84.40
2018-08-27T05:19:08.733Z,84.80
2018-08-27T05:21:37.365Z,84.60
2018-08-27T05:24:06.573Z,84.50
2018-08-27T05:26:35.604Z,84.30
2018-08-27T05:29:04.351Z,84.00
2018-08-27T05:31:33.085Z,84.10
2018-08-27T05:34:02.024Z,84.30
2018-08-27T05:36:30.767Z,84.40
2018-08-27T05:38:59.461Z,84.10
2018-08-27T05:41:28.342Z,83.60
2018-08-27T05:43:57.279Z,83.70
2018-08-27T05:46:26.104Z,83.80
2018-08-27T05:48:54.828Z,83.70
2018-08-27T05:51:23.542Z,83.60
2018-08-27T05:53:52.224Z,83.50
2018-08-27T05:56:20.961Z,82.80
2018-08-27T05:58:49.613Z,82.90
2018-08-27T06:01:18.375Z,83.10
2018-08-27T06:03:47.065Z,83.40
2018-08-27T06:06:15.753Z,83.10
2018-08-27T06:08:45.057Z,82.90
2018-08-27T06:11:13.813Z,82.70
2018-08-27T06:13:42.517Z,81.70
2018-08-27T06:16:11.251Z,81.40
2018-08-27T06:18:39.853Z,80.90
2018-08-27T06:21:08.472Z,80.70
2018-08-27T06:23:37.375Z,81.00
2018-08-27T06:26:06.337Z,80.00
2018-08-27T06:28:34.965Z,80.00
2018-08-27T06:31:03.942Z,80.60
2018-08-27T06:33:32.613Z,78.90
2018-08-27T06:36:01.244Z,79.30
2018-08-27T06:38:29.929Z,79.30
2018-08-27T06:40:58.764Z,79.20
2018-08-27T06:43:27.432Z,78.30
2018-08-27T06:45:56.119Z,77.40
2018-08-27T06:48:24.840Z,76.90
2018-08-27T06:50:53.505Z,77.20
2018-08-27T06:53:22.170Z,77.30
2018-08-27T06:55:50.796Z,76.80
2018-08-27T06:58:19.454Z,76.80
2018-08-27T07:00:48.204Z,76.90
2018-08-27T07:03:17.079Z,77.10
2018-08-27T07:05:45.766Z,76.70
2018-08-27T07:08:15.278Z,76.40
2018-08-27T07:10:43.920Z,75.90
2018-08-27T07:13:12.592Z,75.20
2018-08-27T07:15:41.524Z,74.80
2018-08-27T07:18:10.157Z,73.00
2018-08-27T07:20:39.124Z,73.10
2018-08-27T07:23:08.172Z,73.60
2018-08-27T07:25:37.148Z,73.40
2018-08-27T07:28:06.170Z,73.40
2018-08-27T07:30:35.081Z,73.20
2018-08-27T07:33:03.788Z,72.10
2018-08-27T07:35:32.761Z,72.70
2018-08-27T07:38:01.361Z,72.70
2018-08-27T07:40:30.109Z,73.40
2018-08-27T07:42:58.733Z,71.70
2018-08-27T07:45:27.736Z,70.70
2018-08-27T07:47:56.525Z,68.40
2018-08-27T07:50:25.436Z,66.90
2018-08-27T07:52:54.064Z,67.60
2018-08-27T07:55:22.809Z,67.70
2018-08-27T07:57:51.549Z,67.90
2018-08-27T08:00:24.324Z,66.60
2018-08-27T08:02:54.706Z,65.20
2018-08-27T08:05:23.437Z,66.40
2018-08-27T08:07:52.629Z,66.40
2018-08-27T08:10:21.677Z,64.90
2018-08-27T08:12:51.973Z,64.20
2018-08-27T08:15:21.582Z,64.20
2018-08-27T08:17:50.528Z,65.00
2018-08-27T08:20:19.608Z,65.90
2018-08-27T08:22:48.433Z,66.40
2018-08-27T08:25:17.005Z,63.90
2018-08-27T08:27:45.754Z,63.80
2018-08-27T08:30:14.407Z,64.20
2018-08-27T08:32:43.100Z,64.10
2018-08-27T08:35:11.790Z,64.50
2018-08-27T08:37:40.457Z,64.30
2018-08-27T08:40:09.300Z,64.60
2018-08-27T08:42:37.937Z,65.00
2018-08-27T08:45:06.650Z,65.00
2018-08-27T08:47:35.398Z,65.40
2018-08-27T08:50:04.097Z,65.00
2018-08-27T08:52:32.729Z,64.80
2018-08-27T08:55:01.378Z,63.80
2018-08-27T08:57:31.057Z,63.00
2018-08-27T08:59:59.724Z,62.40
2018-08-27T09:02:28.445Z,62.30
2018-08-27T09:04:57.141Z,61.70
2018-08-27T09:07:25.816Z,62.40
2018-08-27T09:09:54.473Z,61.50
2018-08-27T09:12:23.414Z,62.30
2018-08-27T09:14:52.046Z,61.40
2018-08-27T09:17:20.790Z,61.10
2018-08-27T09:19:49.572Z,61.20
2018-08-27T09:22:18.330Z,60.20
2018-08-27T09:24:46.990Z,60.20
2018-08-27T09:27:15.683Z,60.00
2018-08-27T09:29:44.376Z,60.20
2018-08-27T09:32:13.151Z,60.70
2018-08-27T09:34:41.835Z,61.00
2018-08-27T09:37:10.587Z,60.70
2018-08-27T09:39:39.237Z,60.90
2018-08-27T09:42:07.895Z,59.90
2018-08-27T09:44:36.573Z,58.70
2018-08-27T09:47:06.869Z,59.20
2018-08-27T09:49:36.419Z,60.00
2018-08-27T09:52:05.133Z,60.60
2018-08-27T09:54:33.773Z,60.50
2018-08-27T09:57:02.376Z,60.10
2018-08-27T09:59:31.085Z,60.60
2018-08-27T10:02:01.351Z,64.00
2018-08-27T10:04:30.070Z,68.20
2018-08-27T10:06:59.025Z,69.50
2018-08-27T10:09:27.736Z,68.90
2018-08-27T10:11:56.420Z,67.90
2018-08-27T10:14:25.881Z,68.60
2018-08-27T10:16:54.631Z,66.40
2018-08-27T10:19:23.484Z,65.90
2018-08-27T10:21:52.146Z,64.60
2018-08-27T10:24:20.768Z,62.00
2018-08-27T10:26:49.689Z,63.40
2018-08-27T10:29:18.401Z,63.60
2018-08-27T10:31:47.128Z,63.10
2018-08-27T10:34:15.895Z,63.60
2018-08-27T10:36:45.191Z,65.10
2018-08-27T10:39:13.889Z,64.60
2018-08-27T10:41:42.585Z,64.50
2018-08-27T10:44:11.420Z,64.10
2018-08-27T10:46:40.161Z,64.30
2018-08-27T10:49:08.840Z,63.80
2018-08-27T10:51:37.529Z,64.30
2018-08-27T10:54:06.448Z,64.80
2018-08-27T10:56:35.168Z,64.90
2018-08-27T10:59:03.920Z,64.30
2018-08-27T11:01:32.757Z,64.40
2018-08-27T11:04:01.604Z,64.20
2018-08-27T11:06:30.315Z,65.00
2018-08-27T11:08:59.065Z,65.40
2018-08-27T11:11:27.709Z,64.90
2018-08-27T11:13:56.391Z,65.20
2018-08-27T11:16:25.165Z,70.30
2018-08-27T11:18:53.859Z,71.30
2018-08-27T11:21:22.650Z,71.00
2018-08-27T11:23:52.765Z,69.90
2018-08-27T11:26:22.907Z,68.70
2018-08-27T11:28:51.773Z,67.20
2018-08-27T11:31:20.442Z,66.40
2018-08-27T11:33:49.273Z,66.50
2018-08-27T11:36:18.250Z,65.40
2018-08-27T11:38:47.123Z,64.60
2018-08-27T11:41:15.784Z,63.20
2018-08-27T11:43:44.936Z,63.60
2018-08-27T11:46:13.573Z,62.90
2018-08-27T11:48:42.196Z,62.00
2018-08-27T11:51:10.879Z,61.00
2018-08-27T11:53:39.579Z,61.60
2018-08-27T11:56:08.254Z,61.30
2018-08-27T11:58:37.239Z,60.60
2018-08-27T12:01:07.789Z,60.10
2018-08-27T12:03:36.613Z,59.90
2018-08-27T12:06:05.280Z,59.60
2018-08-27T12:08:34.280Z,59.90
2018-08-27T12:11:03.111Z,59.90
2018-08-27T12:13:31.820Z,60.90
2018-08-27T12:16:00.774Z,60.10
2018-08-27T12:18:30.284Z,60.50
2018-08-27T12:20:59.441Z,60.90
2018-08-27T12:23:28.386Z,60.10
2018-08-27T12:25:57.288Z,59.60
2018-08-27T12:28:26.356Z,59.30
2018-08-27T12:30:55.258Z,58.60
2018-08-27T12:33:24.634Z,58.90
2018-08-27T12:35:53.820Z,59.60
2018-08-27T12:38:22.699Z,59.00
2018-08-27T12:40:51.541Z,59.60
2018-08-27T12:43:20.172Z,59.10
2018-08-27T12:45:48.811Z,58.40
2018-08-27T12:48:17.472Z,58.00
2018-08-27T12:50:46.095Z,58.40
2018-08-27T12:53:15.081Z,58.80
2018-08-27T12:55:43.731Z,58.50
2018-08-27T12:58:12.537Z,57.60
2018-08-27T13:00:41.234Z,57.50
2018-08-27T13:03:09.889Z,57.40
2018-08-27T13:05:39.077Z,57.80
2018-08-27T13:08:07.813Z,57.70
2018-08-27T13:10:36.336Z,57.30
2018-08-27T13:13:05.353Z,57.80
2018-08-27T13:15:34.133Z,57.50
2018-08-27T13:18:02.748Z,57.30
2018-08-27T13:20:31.485Z,57.70
2018-08-27T13:23:00.280Z,57.60
2018-08-27T13:25:29.482Z,58.50
2018-08-27T13:27:58.200Z,57.20
2018-08-27T13:30:27.146Z,56.80
2018-08-27T13:32:55.863Z,55.20
2018-08-27T13:35:24.567Z,55.80
2018-08-27T13:37:53.224Z,56.20
2018-08-27T13:40:21.986Z,56.80
2018-08-27T13:42:50.620Z,57.00
2018-08-27T13:45:19.352Z,57.30
2018-08-27T13:47:48.048Z,57.80
2018-08-27T13:50:16.778Z,57.00
2018-08-27T13:52:45.488Z,57.40
2018-08-27T13:55:14.178Z,57.50
2018-08-27T13:57:42.980Z,57.60
2018-08-27T14:00:17.329Z,57.30
2018-08-27T14:02:46.025Z,57.40
2018-08-27T14:05:14.701Z,57.00
2018-08-27T14:07:43.528Z,55.60
2018-08-27T14:10:12.398Z,55.60
2018-08-27T14:12:41.365Z,55.20
2018-08-27T14:15:10.242Z,54.40
2018-08-27T14:17:39.105Z,53.00
2018-08-27T14:20:08.085Z,53.30
2018-08-27T14:22:36.998Z,53.70
2018-08-27T14:25:06.292Z,54.60
2018-08-27T14:27:35.589Z,54.10
2018-08-27T14:30:04.481Z,55.20
2018-08-27T14:32:33.250Z,54.50
2018-08-27T14:35:01.853Z,55.10
2018-08-27T14:37:30.636Z,54.80
2018-08-27T14:39:59.460Z,55.10
2018-08-27T14:42:28.178Z,55.00
2018-08-27T14:44:57.366Z,54.60
2018-08-27T14:47:26.261Z,53.40
2018-08-27T14:49:55.282Z,52.70
2018-08-27T14:52:24.048Z,53.40
2018-08-27T14:54:52.748Z,53.20
2018-08-27T14:57:21.634Z,52.80
2018-08-27T14:59:50.456Z,54.40
2018-08-27T15:02:19.088Z,52.80
2018-08-27T15:04:48.141Z,53.30
2018-08-27T15:07:17.530Z,52.60
2018-08-27T15:09:46.357Z,52.90
2018-08-27T15:12:14.921Z,54.50
2018-08-27T15:14:43.617Z,57.20
2018-08-27T15:17:12.375Z,58.80
2018-08-27T15:19:41.124Z,59.60
2018-08-27T15:22:10.589Z,60.60
2018-08-27T15:24:39.229Z,60.00
2018-08-27T15:27:07.891Z,60.70
2018-08-27T15:29:36.529Z,61.50
2018-08-27T15:32:05.201Z,62.60
2018-08-27T15:34:33.896Z,62.50
2018-08-27T15:37:02.654Z,62.70
2018-08-27T15:39:31.504Z,62.70
2018-08-27T15:42:00.226Z,63.50
2018-08-27T15:44:29.084Z,63.80
2018-08-27T15:46:57.785Z,63.50
2018-08-27T15:49:26.488Z,64.10
2018-08-27T15:51:55.115Z,65.00
2018-08-27T15:54:23.776Z,65.70
2018-08-27T15:56:52.449Z,65.70
2018-08-27T15:59:21.246Z,65.80
2018-08-27T16:01:49.922Z,65.80
2018-08-27T16:04:18.735Z,66.50
2018-08-27T16:06:47.494Z,66.80
2018-08-27T16:09:16.391Z,66.90
2018-08-27T16:11:45.054Z,67.70
2018-08-27T16:14:13.741Z,68.10
2018-08-27T16:16:42.388Z,68.20
2018-08-27T16:19:11.106Z,68.40
2018-08-27T16:21:39.796Z,67.90
2018-08-27T16:24:08.492Z,67.40
2018-08-27T16:26:40.674Z,66.20
2018-08-27T16:29:09.794Z,66.40
2018-08-27T16:31:38.524Z,67.30
2018-08-27T16:34:07.705Z,68.00
2018-08-27T16:36:37.452Z,68.60
2018-08-27T16:39:07.484Z,69.60
2018-08-27T16:41:36.804Z,69.80
2018-08-27T16:44:05.405Z,68.70
2018-08-27T16:46:34.048Z,66.70
2018-08-27T16:49:03.148Z,66.90
2018-08-27T16:51:31.825Z,67.60
2018-08-27T16:54:00.774Z,68.20
2018-08-27T16:56:29.564Z,69.50
2018-08-27T16:58:58.337Z,69.90
2018-08-27T17:01:27.105Z,71.00
2018-08-27T17:03:56.039Z,71.60
2018-08-27T17:06:24.728Z,72.20
2018-08-27T17:08:53.503Z,73.10
2018-08-27T17:11:22.197Z,73.10
2018-08-27T17:13:50.912Z,73.20
2018-08-27T17:16:19.936Z,73.50
2018-08-27T17:18:48.561Z,73.50
2018-08-27T17:21:17.300Z,73.70
2018-08-27T17:23:45.877Z,73.70
2018-08-27T17:26:15.130Z,73.70
2018-08-27T17:28:43.977Z,73.70
2018-08-27T17:31:12.700Z,73.70
2018-08-27T17:33:41.779Z,73.80
2018-08-27T17:36:10.717Z,74.00
2018-08-27T17:38:39.741Z,74.30
2018-08-27T17:41:09.621Z,74.30
2018-08-27T17:43:38.273Z,74.60
2018-08-27T17:46:06.971Z,75.00
2018-08-27T17:48:38.573Z,75.50
2018-08-27T17:51:07.269Z,75.90
2018-08-27T17:53:36.070Z,76.60
2018-08-27T17:56:04.729Z,76.60
2018-08-27T17:58:33.388Z,77.00
2018-08-27T18:01:02.419Z,77.00
2018-08-27T18:03:31.082Z,77.10
2018-08-27T18:05:59.768Z,77.30
2018-08-27T18:08:28.477Z,77.70
2018-08-27T18:10:57.473Z,77.90
2018-08-27T18:13:26.141Z,78.10
2018-08-27T18:15:54.842Z,78.10
2018-08-27T18:18:23.530Z,78.40
2018-08-27T18:20:52.236Z,78.70
2018-08-27T18:23:21.104Z,78.80
2018-08-27T18:25:50.102Z,79.10
2018-08-27T18:28:18.944Z,79.50
2018-08-27T18:30:47.652Z,79.70
2018-08-27T18:33:16.373Z,79.90
2018-08-27T18:35:45.141Z,80.00
2018-08-27T18:38:13.872Z,81.40
2018-08-27T18:40:42.700Z,82.00
2018-08-27T18:43:11.400Z,82.10
2018-08-27T18:45:40.186Z,82.20
2018-08-27T18:48:08.935Z,82.80
2018-08-27T18:50:37.556Z,82.90
2018-08-27T18:53:06.325Z,83.10
2018-08-27T18:55:35.259Z,83.00
2018-08-27T18:58:03.897Z,82.60
2018-08-27T19:00:32.837Z,82.50
2018-08-27T19:03:01.574Z,82.60
2018-08-27T19:05:30.262Z,82.50
2018-08-27T19:07:58.890Z,82.50
2018-08-27T19:10:27.570Z,82.50
2018-08-27T19:12:56.331Z,83.00
2018-08-27T19:15:24.961Z,83.40
2018-08-27T19:17:53.645Z,84.00
2018-08-27T19:20:22.321Z,84.30
2018-08-27T19:22:50.997Z,84.90
2018-08-27T19:25:19.683Z,85.00
2018-08-27T19:27:48.933Z,85.00
2018-08-27T19:30:20.309Z,84.80
2018-08-27T19:32:50.100Z,84.90
2018-08-27T19:35:18.817Z,84.90
2018-08-27T19:37:47.568Z,85.10
2018-08-27T19:40:17.393Z,85.20
2018-08-27T19:42:46.109Z,85.40
2018-08-27T19:45:14.777Z,85.50
2018-08-27T19:47:43.529Z,85.70
2018-08-27T19:50:13.179Z,85.80
2018-08-27T19:52:41.868Z,86.00
2018-08-27T19:55:10.543Z,85.80
2018-08-27T19:57:39.313Z,85.90
2018-08-27T20:00:08.094Z,86.00
2018-08-27T20:02:36.798Z,85.90
2018-08-27T20:05:05.573Z,86.20
2018-08-27T20:07:34.297Z,86.20
2018-08-27T20:10:02.960Z,86.40
2018-08-27T20:12:31.640Z,86.70
2018-08-27T20:15:00.288Z,86.70
2018-08-27T20:17:29.979Z,86.80
2018-08-27T20:19:58.661Z,86.80
2018-08-27T20:22:27.340Z,86.80
2018-08-27T20:24:56.064Z,86.80
2018-08-27T20:27:24.768Z,87.10
2018-08-27T20:29:53.644Z,87.00
2018-08-27T20:32:22.344Z,86.80
2018-08-27T20:34:51.045Z,86.90
2018-08-27T20:37:19.700Z,86.80
2018-08-27T20:39:48.455Z,86.90
2018-08-27T20:42:17.369Z,87.00
2018-08-27T20:44:46.092Z,87.10
2018-08-27T20:47:15.163Z,87.40
2018-08-27T20:49:43.811Z,87.20
2018-08-27T20:52:12.461Z,87.10
2018-08-27T20:54:41.393Z,86.90
2018-08-27T20:57:10.058Z,86.90
2018-08-27T20:59:38.690Z,87.30
2018-08-27T21:02:07.388Z,88.30
2018-08-27T21:04:36.066Z,88.70
2018-08-27T21:07:04.893Z,88.80
2018-08-27T21:09:33.673Z,89.40
2018-08-27T21:12:02.351Z,89.60
2018-08-27T21:15:11.755Z,89.90
2018-08-27T21:17:41.179Z,90.10
2018-08-27T21:20:11.841Z,89.80
2018-08-27T21:22:40.644Z,89.80
2018-08-27T21:25:09.995Z,89.90
2018-08-27T21:27:39.301Z,90.00
2018-08-27T21:30:09.598Z,90.10
2018-08-27T21:32:38.260Z,90.10
2018-08-27T21:35:07.019Z,90.00
2018-08-27T21:37:35.738Z,89.70
2018-08-27T21:40:04.558Z,89.70
2018-08-27T21:42:33.442Z,89.80
2018-08-27T21:45:02.462Z,89.60
2018-08-27T21:47:31.163Z,89.50
2018-08-27T21:49:59.929Z,89.30
2018-08-27T21:52:28.577Z,89.70
2018-08-27T21:54:57.256Z,89.80
2018-08-27T21:57:25.957Z,89.80
2018-08-27T21:59:54.768Z,90.00
2018-08-27T22:02:28.554Z,90.00
2018-08-27T22:04:57.926Z,90.10
2018-08-27T22:07:26.609Z,90.40
2018-08-27T22:09:55.372Z,90.60
2018-08-27T22:12:24.326Z,90.60
2018-08-27T22:14:53.451Z,90.70
2018-08-27T22:17:22.072Z,90.90
2018-08-27T22:19:51.031Z,91.10
2018-08-27T22:22:19.769Z,90.70
2018-08-27T22:24:48.341Z,90.80
2018-08-27T22:27:17.055Z,90.60
2018-08-27T22:29:45.998Z,90.50
2018-08-27T22:32:15.045Z,90.80
2018-08-27T22:34:43.770Z,90.40
2018-08-27T22:37:12.665Z,90.50
2018-08-27T22:39:42.021Z,90.40
2018-08-27T22:42:10.973Z,90.40
2018-08-27T22:44:39.888Z,90.70
2018-08-27T22:47:10.708Z,90.50
2018-08-27T22:49:40.994Z,90.40
2018-08-27T22:52:09.732Z,90.30
2018-08-27T22:54:38.564Z,90.50
2018-08-27T22:57:07.724Z,90.80
2018-08-27T22:59:36.600Z,90.60
2018-08-27T23:02:05.504Z,91.10
2018-08-27T23:04:39.358Z,91.20
2018-08-27T23:07:08.780Z,90.90
2018-08-27T23:09:37.877Z,91.20
2018-08-27T23:12:06.614Z,91.00
2018-08-27T23:14:35.441Z,90.90
2018-08-27T23:17:04.380Z,90.90
2018-08-27T23:19:33.294Z,91.10
2018-08-27T23:22:02.036Z,91.00
2018-08-27T23:24:31.189Z,90.90
2018-08-27T23:27:00.120Z,91.00
2018-08-27T23:29:28.740Z,91.10
2018-08-27T23:31:57.601Z,91.00
2018-08-27T23:34:26.464Z,90.90
2018-08-27T23:36:55.118Z,91.20
2018-08-27T23:39:24.137Z,90.90
2018-08-27T23:41:52.801Z,91.00
2018-08-27T23:44:21.500Z,90.90
2018-08-27T23:46:50.170Z,90.70
2018-08-27T23:49:18.881Z,91.00
2018-08-27T23:51:47.689Z,91.20
2018-08-27T23:54:16.537Z,91.40
2018-08-27T23:56:45.256Z,91.40
2018-08-27T23:59:13.928Z,91.50
